sensor_id;sensor_type;location;lat;lon;timestamp;pressure;altitude;pressure_sealevel;temperature;humidity
61035;BME280;46916;40.564;-7.958;2022-08-03T00:01:42;97072.75;;;25.56;52.32
61035;BME280;46916;40.564;-7.958;2022-08-03T00:03:43;97075.66;;;25.55;51.98
61035;BME280;46916;40.564;-7.958;2022-08-03T00:05:44;97073.47;;;25.52;52.19
61035;BME280;46916;40.564;-7.958;2022-08-03T00:07:44;97074.03;;;25.42;52.98
61035;BME280;46916;40.564;-7.958;2022-08-03T00:09:45;97065.16;;;25.41;52.76
61035;BME280;46916;40.564;-7.958;2022-08-03T00:11:46;97062.94;;;25.38;52.75
61035;BME280;46916;40.564;-7.958;2022-08-03T00:13:46;97062.28;;;25.31;53.26
61035;BME280;46916;40.564;-7.958;2022-08-03T00:15:47;97062.47;;;25.30;53.15
61035;BME280;46916;40.564;-7.958;2022-08-03T00:17:47;97065.63;;;25.27;53.42
61035;BME280;46916;40.564;-7.958;2022-08-03T00:19:48;97070.66;;;25.23;53.45
61035;BME280;46916;40.564;-7.958;2022-08-03T00:21:49;97069.34;;;25.14;53.68
61035;BME280;46916;40.564;-7.958;2022-08-03T00:23:50;97069.94;;;25.16;53.58
61035;BME280;46916;40.564;-7.958;2022-08-03T00:25:50;97059.09;;;25.11;54.29
61035;BME280;46916;40.564;-7.958;2022-08-03T00:27:51;97063.53;;;25.17;53.53
61035;BME280;46916;40.564;-7.958;2022-08-03T00:29:52;97061.78;;;25.11;53.98
61035;BME280;46916;40.564;-7.958;2022-08-03T00:31:52;97060.72;;;25.12;53.81
61035;BME280;46916;40.564;-7.958;2022-08-03T00:33:53;97058.88;;;25.12;54.19
61035;BME280;46916;40.564;-7.958;2022-08-03T00:35:54;97062.34;;;25.13;54.03
61035;BME280;46916;40.564;-7.958;2022-08-03T00:37:54;97056.41;;;25.11;54.18
61035;BME280;46916;40.564;-7.958;2022-08-03T00:39:55;97053.97;;;25.09;54.64
61035;BME280;46916;40.564;-7.958;2022-08-03T00:41:56;97054.78;;;25.10;54.18
61035;BME280;46916;40.564;-7.958;2022-08-03T00:43:56;97048.81;;;25.08;54.27
61035;BME280;46916;40.564;-7.958;2022-08-03T00:45:57;97049.50;;;25.03;54.63
61035;BME280;46916;40.564;-7.958;2022-08-03T00:47:58;97041.91;;;25.00;54.71
61035;BME280;46916;40.564;-7.958;2022-08-03T00:49:59;97039.69;;;24.97;54.86
61035;BME280;46916;40.564;-7.958;2022-08-03T00:52:00;97038.16;;;24.89;55.28
61035;BME280;46916;40.564;-7.958;2022-08-03T00:54:01;97034.09;;;24.87;55.08
61035;BME280;46916;40.564;-7.958;2022-08-03T00:56:02;97037.59;;;24.87;54.98
61035;BME280;46916;40.564;-7.958;2022-08-03T00:58:03;97037.81;;;24.86;55.08
61035;BME280;46916;40.564;-7.958;2022-08-03T01:00:07;97032.69;;;24.84;55.13
61035;BME280;46916;40.564;-7.958;2022-08-03T01:02:08;97038.50;;;24.81;54.93
61035;BME280;46916;40.564;-7.958;2022-08-03T01:04:08;97025.44;;;24.73;54.89
61035;BME280;46916;40.564;-7.958;2022-08-03T01:06:16;97034.53;;;24.72;55.39
61035;BME280;46916;40.564;-7.958;2022-08-03T01:08:39;97034.16;;;24.68;55.41
61035;BME280;46916;40.564;-7.958;2022-08-03T01:15:45;97029.81;;;24.56;55.17
61035;BME280;46916;40.564;-7.958;2022-08-03T01:17:59;97029.69;;;24.51;55.36
61035;BME280;46916;40.564;-7.958;2022-08-03T01:20:06;97029.78;;;24.44;55.88
61035;BME280;46916;40.564;-7.958;2022-08-03T01:27:41;97023.66;;;24.37;55.22
61035;BME280;46916;40.564;-7.958;2022-08-03T01:29:54;97026.00;;;24.33;55.60
61035;BME280;46916;40.564;-7.958;2022-08-03T01:32:04;97028.31;;;24.30;55.90
61035;BME280;46916;40.564;-7.958;2022-08-03T01:34:11;97031.81;;;24.30;56.10
61035;BME280;46916;40.564;-7.958;2022-08-03T01:36:15;97021.31;;;24.29;55.61
61035;BME280;46916;40.564;-7.958;2022-08-03T01:38:23;97024.91;;;24.22;55.39
61035;BME280;46916;40.564;-7.958;2022-08-03T01:40:26;97022.47;;;24.21;55.70
61035;BME280;46916;40.564;-7.958;2022-08-03T01:42:29;97023.84;;;24.23;55.70
61035;BME280;46916;40.564;-7.958;2022-08-03T01:44:35;97026.78;;;24.22;55.88
61035;BME280;46916;40.564;-7.958;2022-08-03T01:46:37;97031.50;;;24.20;56.03
61035;BME280;46916;40.564;-7.958;2022-08-03T01:48:41;97023.03;;;24.23;56.01
61035;BME280;46916;40.564;-7.958;2022-08-03T01:50:44;97022.22;;;24.22;56.22
61035;BME280;46916;40.564;-7.958;2022-08-03T01:52:46;97023.13;;;24.16;55.99
61035;BME280;46916;40.564;-7.958;2022-08-03T01:54:50;97031.00;;;24.11;56.34
61035;BME280;46916;40.564;-7.958;2022-08-03T01:56:52;97028.06;;;24.01;56.70
61035;BME280;46916;40.564;-7.958;2022-08-03T01:58:54;97021.38;;;23.92;56.48
61035;BME280;46916;40.564;-7.958;2022-08-03T02:00:59;97031.94;;;23.87;56.90
61035;BME280;46916;40.564;-7.958;2022-08-03T02:03:04;97031.13;;;23.86;56.76
61035;BME280;46916;40.564;-7.958;2022-08-03T02:05:08;97025.63;;;23.81;56.59
61035;BME280;46916;40.564;-7.958;2022-08-03T02:07:10;97036.31;;;23.81;56.55
61035;BME280;46916;40.564;-7.958;2022-08-03T02:11:14;97019.53;;;23.74;56.42
61035;BME280;46916;40.564;-7.958;2022-08-03T02:13:15;97021.84;;;23.70;56.30
61035;BME280;46916;40.564;-7.958;2022-08-03T02:15:19;97028.00;;;23.71;56.18
61035;BME280;46916;40.564;-7.958;2022-08-03T02:17:21;97022.06;;;23.69;56.84
61035;BME280;46916;40.564;-7.958;2022-08-03T02:19:23;97022.66;;;23.71;56.90
61035;BME280;46916;40.564;-7.958;2022-08-03T02:21:27;97027.84;;;23.66;56.82
61035;BME280;46916;40.564;-7.958;2022-08-03T02:23:30;97015.50;;;23.65;56.83
61035;BME280;46916;40.564;-7.958;2022-08-03T02:25:32;97031.41;;;23.60;57.46
61035;BME280;46916;40.564;-7.958;2022-08-03T02:27:36;97024.63;;;23.57;57.07
61035;BME280;46916;40.564;-7.958;2022-08-03T02:29:39;97027.16;;;23.52;57.66
61035;BME280;46916;40.564;-7.958;2022-08-03T02:31:42;97027.16;;;23.52;57.79
61035;BME280;46916;40.564;-7.958;2022-08-03T02:33:57;97032.13;;;23.48;57.95
61035;BME280;46916;40.564;-7.958;2022-08-03T02:36:00;97022.09;;;23.44;58.17
61035;BME280;46916;40.564;-7.958;2022-08-03T02:38:04;97018.22;;;23.40;58.11
61035;BME280;46916;40.564;-7.958;2022-08-03T02:40:08;97022.59;;;23.34;58.23
61035;BME280;46916;40.564;-7.958;2022-08-03T02:42:11;97023.47;;;23.28;58.13
61035;BME280;46916;40.564;-7.958;2022-08-03T02:44:16;97017.75;;;23.24;58.29
61035;BME280;46916;40.564;-7.958;2022-08-03T02:46:19;97021.09;;;23.20;58.71
61035;BME280;46916;40.564;-7.958;2022-08-03T02:48:26;97016.41;;;23.15;58.77
61035;BME280;46916;40.564;-7.958;2022-08-03T02:50:28;97014.56;;;23.16;58.78
61035;BME280;46916;40.564;-7.958;2022-08-03T02:52:31;97012.16;;;23.08;58.97
61035;BME280;46916;40.564;-7.958;2022-08-03T02:54:33;97015.88;;;23.07;59.13
61035;BME280;46916;40.564;-7.958;2022-08-03T02:56:36;97020.34;;;23.13;58.41
61035;BME280;46916;40.564;-7.958;2022-08-03T02:58:38;97027.69;;;23.17;57.82
61035;BME280;46916;40.564;-7.958;2022-08-03T03:00:40;97020.88;;;23.21;57.81
61035;BME280;46916;40.564;-7.958;2022-08-03T03:02:43;97019.38;;;23.26;57.52
61035;BME280;46916;40.564;-7.958;2022-08-03T03:04:45;97017.91;;;23.30;58.20
61035;BME280;46916;40.564;-7.958;2022-08-03T03:06:46;97021.84;;;23.27;57.86
61035;BME280;46916;40.564;-7.958;2022-08-03T03:08:48;97016.34;;;23.22;58.18
61035;BME280;46916;40.564;-7.958;2022-08-03T03:10:49;97017.44;;;23.14;58.50
61035;BME280;46916;40.564;-7.958;2022-08-03T03:12:55;97023.00;;;23.13;58.73
61035;BME280;46916;40.564;-7.958;2022-08-03T03:14:57;97017.28;;;23.09;58.76
61035;BME280;46916;40.564;-7.958;2022-08-03T03:16:59;97017.88;;;23.11;59.06
61035;BME280;46916;40.564;-7.958;2022-08-03T03:19:01;97029.16;;;23.13;59.37
61035;BME280;46916;40.564;-7.958;2022-08-03T03:21:03;97023.22;;;23.11;59.38
61035;BME280;46916;40.564;-7.958;2022-08-03T03:23:04;97032.25;;;23.10;59.24
61035;BME280;46916;40.564;-7.958;2022-08-03T03:25:05;97032.06;;;23.12;59.69
61035;BME280;46916;40.564;-7.958;2022-08-03T03:27:06;97024.47;;;23.09;60.11
61035;BME280;46916;40.564;-7.958;2022-08-03T03:29:08;97028.63;;;23.05;60.01
61035;BME280;46916;40.564;-7.958;2022-08-03T03:31:09;97027.41;;;23.01;60.48
61035;BME280;46916;40.564;-7.958;2022-08-03T03:33:11;97024.78;;;22.94;60.78
61035;BME280;46916;40.564;-7.958;2022-08-03T03:35:13;97022.97;;;22.88;60.86
61035;BME280;46916;40.564;-7.958;2022-08-03T03:37:14;97024.03;;;22.87;61.48
61035;BME280;46916;40.564;-7.958;2022-08-03T03:39:14;97032.63;;;22.89;61.01
61035;BME280;46916;40.564;-7.958;2022-08-03T03:41:15;97030.59;;;22.91;61.01
61035;BME280;46916;40.564;-7.958;2022-08-03T03:43:16;97018.44;;;22.95;60.57
61035;BME280;46916;40.564;-7.958;2022-08-03T03:45:18;97023.56;;;22.96;60.27
61035;BME280;46916;40.564;-7.958;2022-08-03T03:47:20;97023.56;;;22.96;60.45
61035;BME280;46916;40.564;-7.958;2022-08-03T03:49:20;97026.44;;;22.95;60.59
61035;BME280;46916;40.564;-7.958;2022-08-03T03:51:21;97022.97;;;22.94;60.85
61035;BME280;46916;40.564;-7.958;2022-08-03T03:53:22;97015.78;;;22.95;60.94
61035;BME280;46916;40.564;-7.958;2022-08-03T03:55:23;97020.31;;;22.94;60.89
61035;BME280;46916;40.564;-7.958;2022-08-03T03:57:24;97013.34;;;22.87;60.66
61035;BME280;46916;40.564;-7.958;2022-08-03T03:59:25;97012.34;;;22.81;60.76
61035;BME280;46916;40.564;-7.958;2022-08-03T04:01:26;97014.03;;;22.75;61.29
61035;BME280;46916;40.564;-7.958;2022-08-03T04:03:27;97012.59;;;22.73;61.31
61035;BME280;46916;40.564;-7.958;2022-08-03T04:05:27;97016.31;;;22.72;61.08
61035;BME280;46916;40.564;-7.958;2022-08-03T04:08:06;97013.88;;;22.70;61.42
61035;BME280;46916;40.564;-7.958;2022-08-03T04:10:27;97007.28;;;22.73;61.08
61035;BME280;46916;40.564;-7.958;2022-08-03T04:13:08;97000.69;;;22.75;61.14
61035;BME280;46916;40.564;-7.958;2022-08-03T04:15:10;96998.84;;;22.76;61.09
61035;BME280;46916;40.564;-7.958;2022-08-03T04:17:14;96997.41;;;22.73;60.82
61035;BME280;46916;40.564;-7.958;2022-08-03T04:19:26;97009.56;;;22.69;61.23
61035;BME280;46916;40.564;-7.958;2022-08-03T04:21:29;97012.22;;;22.69;61.61
61035;BME280;46916;40.564;-7.958;2022-08-03T04:23:32;97010.41;;;22.70;61.72
61035;BME280;46916;40.564;-7.958;2022-08-03T04:25:36;97008.31;;;22.72;61.44
61035;BME280;46916;40.564;-7.958;2022-08-03T04:27:40;97017.53;;;22.76;61.18
61035;BME280;46916;40.564;-7.958;2022-08-03T04:29:45;97016.72;;;22.75;60.74
61035;BME280;46916;40.564;-7.958;2022-08-03T04:31:47;97021.06;;;22.70;61.00
61035;BME280;46916;40.564;-7.958;2022-08-03T04:33:50;97026.22;;;22.65;61.62
61035;BME280;46916;40.564;-7.958;2022-08-03T04:35:54;97033.22;;;22.66;61.58
61035;BME280;46916;40.564;-7.958;2022-08-03T04:38:00;97029.69;;;22.65;61.46
61035;BME280;46916;40.564;-7.958;2022-08-03T04:40:08;97028.88;;;22.65;61.73
61035;BME280;46916;40.564;-7.958;2022-08-03T04:42:11;97029.94;;;22.64;61.54
61035;BME280;46916;40.564;-7.958;2022-08-03T04:44:14;97025.00;;;22.61;61.75
61035;BME280;46916;40.564;-7.958;2022-08-03T04:46:15;97029.97;;;22.57;61.75
61035;BME280;46916;40.564;-7.958;2022-08-03T04:48:17;97031.81;;;22.57;61.65
61035;BME280;46916;40.564;-7.958;2022-08-03T04:50:20;97025.47;;;22.58;61.26
61035;BME280;46916;40.564;-7.958;2022-08-03T04:52:37;97028.75;;;22.53;61.41
61035;BME280;46916;40.564;-7.958;2022-08-03T04:54:40;97027.75;;;22.54;60.84
61035;BME280;46916;40.564;-7.958;2022-08-03T04:56:42;97016.88;;;22.49;61.18
61035;BME280;46916;40.564;-7.958;2022-08-03T04:58:43;97016.50;;;22.45;60.97
61035;BME280;46916;40.564;-7.958;2022-08-03T05:00:43;97021.00;;;22.45;61.17
61035;BME280;46916;40.564;-7.958;2022-08-03T05:02:44;97025.53;;;22.44;61.55
61035;BME280;46916;40.564;-7.958;2022-08-03T05:04:45;97027.38;;;22.44;61.59
61035;BME280;46916;40.564;-7.958;2022-08-03T05:06:46;97037.00;;;22.45;61.90
61035;BME280;46916;40.564;-7.958;2022-08-03T05:08:46;97043.78;;;22.47;61.86
61035;BME280;46916;40.564;-7.958;2022-08-03T05:10:47;97045.41;;;22.48;61.28
61035;BME280;46916;40.564;-7.958;2022-08-03T05:12:48;97052.00;;;22.46;61.79
61035;BME280;46916;40.564;-7.958;2022-08-03T05:14:50;97053.88;;;22.45;62.07
61035;BME280;46916;40.564;-7.958;2022-08-03T05:16:51;97054.47;;;22.41;62.16
61035;BME280;46916;40.564;-7.958;2022-08-03T05:18:52;97064.16;;;22.42;62.33
61035;BME280;46916;40.564;-7.958;2022-08-03T05:20:52;97058.00;;;22.41;62.24
61035;BME280;46916;40.564;-7.958;2022-08-03T05:22:53;97062.50;;;22.41;62.38
61035;BME280;46916;40.564;-7.958;2022-08-03T05:24:54;97064.16;;;22.42;62.46
61035;BME280;46916;40.564;-7.958;2022-08-03T05:26:55;97070.88;;;22.44;62.43
61035;BME280;46916;40.564;-7.958;2022-08-03T05:28:55;97067.41;;;22.44;62.37
61035;BME280;46916;40.564;-7.958;2022-08-03T05:30:56;97068.84;;;22.46;62.89
61035;BME280;46916;40.564;-7.958;2022-08-03T05:32:57;97070.47;;;22.47;62.74
61035;BME280;46916;40.564;-7.958;2022-08-03T05:34:59;97061.41;;;22.48;62.70
61035;BME280;46916;40.564;-7.958;2022-08-03T05:37:00;97071.09;;;22.49;62.64
61035;BME280;46916;40.564;-7.958;2022-08-03T05:39:01;97061.22;;;22.50;62.95
61035;BME280;46916;40.564;-7.958;2022-08-03T05:41:05;97057.75;;;22.49;62.52
61035;BME280;46916;40.564;-7.958;2022-08-03T05:43:05;97062.28;;;22.42;62.92
61035;BME280;46916;40.564;-7.958;2022-08-03T05:45:06;97057.16;;;22.41;63.23
61035;BME280;46916;40.564;-7.958;2022-08-03T05:47:19;97060.03;;;22.39;63.31
61035;BME280;46916;40.564;-7.958;2022-08-03T05:49:20;97067.47;;;22.37;63.46
61035;BME280;46916;40.564;-7.958;2022-08-03T05:51:20;97068.28;;;22.38;63.38
61035;BME280;46916;40.564;-7.958;2022-08-03T05:53:21;97066.41;;;22.38;62.88
61035;BME280;46916;40.564;-7.958;2022-08-03T05:55:21;97070.72;;;22.39;63.33
61035;BME280;46916;40.564;-7.958;2022-08-03T05:57:22;97066.63;;;22.37;63.39
61035;BME280;46916;40.564;-7.958;2022-08-03T05:59:23;97065.63;;;22.31;63.17
61035;BME280;46916;40.564;-7.958;2022-08-03T06:01:25;97073.66;;;22.24;63.37
61035;BME280;46916;40.564;-7.958;2022-08-03T06:03:25;97081.03;;;22.29;63.39
61035;BME280;46916;40.564;-7.958;2022-08-03T06:05:26;97076.06;;;22.33;63.41
61035;BME280;46916;40.564;-7.958;2022-08-03T06:07:27;97075.88;;;22.34;63.08
61035;BME280;46916;40.564;-7.958;2022-08-03T06:09:28;97066.63;;;22.37;63.00
61035;BME280;46916;40.564;-7.958;2022-08-03T06:11:29;97071.13;;;22.36;62.76
61035;BME280;46916;40.564;-7.958;2022-08-03T06:13:29;97070.94;;;22.38;62.73
61035;BME280;46916;40.564;-7.958;2022-08-03T06:15:30;97076.47;;;22.36;63.09
61035;BME280;46916;40.564;-7.958;2022-08-03T06:17:33;97074.44;;;22.38;63.08
61035;BME280;46916;40.564;-7.958;2022-08-03T06:19:35;97076.06;;;22.39;62.79
61035;BME280;46916;40.564;-7.958;2022-08-03T06:21:35;97069.50;;;22.35;62.62
61035;BME280;46916;40.564;-7.958;2022-08-03T06:23:36;97075.25;;;22.32;62.91
61035;BME280;46916;40.564;-7.958;2022-08-03T06:25:37;97079.38;;;22.28;62.62
61035;BME280;46916;40.564;-7.958;2022-08-03T06:27:38;97083.09;;;22.27;62.60
61035;BME280;46916;40.564;-7.958;2022-08-03T06:29:39;97081.88;;;22.23;62.75
61035;BME280;46916;40.564;-7.958;2022-08-03T06:31:40;97090.69;;;22.23;63.24
61035;BME280;46916;40.564;-7.958;2022-08-03T06:33:40;97086.78;;;22.26;63.17
61035;BME280;46916;40.564;-7.958;2022-08-03T06:35:41;97086.78;;;22.26;62.87
61035;BME280;46916;40.564;-7.958;2022-08-03T06:37:45;97088.41;;;22.27;62.69
61035;BME280;46916;40.564;-7.958;2022-08-03T06:39:46;97089.47;;;22.19;63.41
61035;BME280;46916;40.564;-7.958;2022-08-03T06:41:46;97095.84;;;22.18;63.22
61035;BME280;46916;40.564;-7.958;2022-08-03T06:43:47;97103.03;;;22.18;63.21
61035;BME280;46916;40.564;-7.958;2022-08-03T06:45:48;97101.41;;;22.17;63.57
61035;BME280;46916;40.564;-7.958;2022-08-03T06:47:59;97105.09;;;22.16;64.18
61035;BME280;46916;40.564;-7.958;2022-08-03T06:50:00;97096.25;;;22.15;63.65
61035;BME280;46916;40.564;-7.958;2022-08-03T06:52:01;97103.44;;;22.15;64.17
61035;BME280;46916;40.564;-7.958;2022-08-03T06:54:01;97105.09;;;22.16;63.95
61035;BME280;46916;40.564;-7.958;2022-08-03T06:56:06;97108.38;;;22.18;63.50
61035;BME280;46916;40.564;-7.958;2022-08-03T06:58:06;97104.66;;;22.19;63.65
61035;BME280;46916;40.564;-7.958;2022-08-03T07:00:08;97108.16;;;22.19;63.74
61035;BME280;46916;40.564;-7.958;2022-08-03T07:02:09;97106.09;;;22.21;63.72
61035;BME280;46916;40.564;-7.958;2022-08-03T07:04:10;97113.06;;;22.22;63.33
61035;BME280;46916;40.564;-7.958;2022-08-03T07:06:11;97115.75;;;22.22;63.27
61035;BME280;46916;40.564;-7.958;2022-08-03T07:08:13;97103.63;;;22.20;63.20
61035;BME280;46916;40.564;-7.958;2022-08-03T07:10:13;97106.53;;;22.18;63.62
61035;BME280;46916;40.564;-7.958;2022-08-03T07:12:14;97110.03;;;22.06;64.24
61035;BME280;46916;40.564;-7.958;2022-08-03T07:14:14;97102.03;;;22.06;64.00
61035;BME280;46916;40.564;-7.958;2022-08-03T07:16:15;97109.44;;;21.90;65.14
61035;BME280;46916;40.564;-7.958;2022-08-03T07:18:16;97110.53;;;21.69;65.58
61035;BME280;46916;40.564;-7.958;2022-08-03T07:20:16;97115.03;;;21.62;66.05
61035;BME280;46916;40.564;-7.958;2022-08-03T07:22:17;97116.28;;;21.60;66.09
61035;BME280;46916;40.564;-7.958;2022-08-03T07:24:18;97115.88;;;21.49;66.26
61035;BME280;46916;40.564;-7.958;2022-08-03T07:26:18;97113.63;;;21.53;65.48
61035;BME280;46916;40.564;-7.958;2022-08-03T07:28:19;97120.78;;;21.59;65.33
61035;BME280;46916;40.564;-7.958;2022-08-03T07:30:20;97119.97;;;21.45;66.05
61035;BME280;46916;40.564;-7.958;2022-08-03T07:32:21;97119.97;;;21.45;66.73
61035;BME280;46916;40.564;-7.958;2022-08-03T07:34:21;97119.16;;;21.51;65.89
61035;BME280;46916;40.564;-7.958;2022-08-03T07:36:22;97124.28;;;21.60;65.66
61035;BME280;46916;40.564;-7.958;2022-08-03T07:38:24;97123.03;;;21.62;65.88
61035;BME280;46916;40.564;-7.958;2022-08-03T07:40:24;97125.50;;;21.64;65.86
61035;BME280;46916;40.564;-7.958;2022-08-03T07:42:26;97125.28;;;21.65;65.48
61035;BME280;46916;40.564;-7.958;2022-08-03T07:44:27;97130.22;;;21.68;65.28
61035;BME280;46916;40.564;-7.958;2022-08-03T07:46:28;97118.69;;;21.74;64.97
61035;BME280;46916;40.564;-7.958;2022-08-03T07:48:30;97125.88;;;21.74;65.37
61035;BME280;46916;40.564;-7.958;2022-08-03T07:50:31;97121.38;;;21.74;65.48
61035;BME280;46916;40.564;-7.958;2022-08-03T07:52:31;97123.63;;;21.77;65.33
61035;BME280;46916;40.564;-7.958;2022-08-03T07:54:47;97122.56;;;21.92;65.40
61035;BME280;46916;40.564;-7.958;2022-08-03T07:56:48;97127.47;;;22.01;65.50
61035;BME280;46916;40.564;-7.958;2022-08-03T07:58:48;97131.00;;;21.89;65.75
61035;BME280;46916;40.564;-7.958;2022-08-03T08:00:49;97124.63;;;21.83;65.67
61035;BME280;46916;40.564;-7.958;2022-08-03T08:02:52;97134.06;;;21.79;65.98
61035;BME280;46916;40.564;-7.958;2022-08-03T08:04:52;97130.84;;;21.57;66.45
61035;BME280;46916;40.564;-7.958;2022-08-03T08:06:54;97127.13;;;21.65;66.32
61035;BME280;46916;40.564;-7.958;2022-08-03T08:08:57;97127.50;;;21.82;65.59
61035;BME280;46916;40.564;-7.958;2022-08-03T08:11:01;97121.75;;;21.91;65.42
61035;BME280;46916;40.564;-7.958;2022-08-03T08:13:02;97133.84;;;22.00;64.81
61035;BME280;46916;40.564;-7.958;2022-08-03T08:15:04;97128.06;;;22.10;65.20
61035;BME280;46916;40.564;-7.958;2022-08-03T08:17:05;97130.50;;;22.25;64.53
61035;BME280;46916;40.564;-7.958;2022-08-03T08:19:07;97133.75;;;22.34;64.29
61035;BME280;46916;40.564;-7.958;2022-08-03T08:21:09;97134.34;;;22.42;64.39
61035;BME280;46916;40.564;-7.958;2022-08-03T08:23:10;97130.59;;;22.50;63.96
61035;BME280;46916;40.564;-7.958;2022-08-03T08:25:11;97130.81;;;22.48;63.89
61035;BME280;46916;40.564;-7.958;2022-08-03T08:27:12;97134.28;;;22.49;63.83
61035;BME280;46916;40.564;-7.958;2022-08-03T08:29:13;97129.59;;;22.44;64.20
61035;BME280;46916;40.564;-7.958;2022-08-03T08:31:14;97125.03;;;22.52;64.03
61035;BME280;46916;40.564;-7.958;2022-08-03T08:33:14;97125.47;;;22.48;63.58
61035;BME280;46916;40.564;-7.958;2022-08-03T08:35:16;97126.88;;;22.58;63.62
61035;BME280;46916;40.564;-7.958;2022-08-03T08:37:23;97128.47;;;22.65;63.63
61035;BME280;46916;40.564;-7.958;2022-08-03T08:39:29;97125.22;;;22.57;63.72
61035;BME280;46916;40.564;-7.958;2022-08-03T08:41:36;97123.34;;;22.64;63.19
61035;BME280;46916;40.564;-7.958;2022-08-03T08:43:37;97120.69;;;22.64;63.90
61035;BME280;46916;40.564;-7.958;2022-08-03T08:45:39;97121.91;;;22.61;63.38
61035;BME280;46916;40.564;-7.958;2022-08-03T08:47:45;97124.47;;;22.49;63.89
61035;BME280;46916;40.564;-7.958;2022-08-03T08:49:53;97118.91;;;22.51;63.79
61035;BME280;46916;40.564;-7.958;2022-08-03T08:51:55;97123.75;;;22.61;63.21
61035;BME280;46916;40.564;-7.958;2022-08-03T08:54:00;97119.06;;;22.56;64.03
61035;BME280;46916;40.564;-7.958;2022-08-03T08:56:02;97119.69;;;22.58;63.67
61035;BME280;46916;40.564;-7.958;2022-08-03T08:58:08;97123.41;;;22.50;63.67
61035;BME280;46916;40.564;-7.958;2022-08-03T09:00:10;97125.44;;;22.55;63.45
61035;BME280;46916;40.564;-7.958;2022-08-03T09:02:14;97126.47;;;22.54;63.53
61035;BME280;46916;40.564;-7.958;2022-08-03T09:04:15;97135.38;;;22.41;64.46
61035;BME280;46916;40.564;-7.958;2022-08-03T09:06:16;97140.47;;;22.49;64.40
61035;BME280;46916;40.564;-7.958;2022-08-03T09:08:17;97134.25;;;22.62;64.08
61035;BME280;46916;40.564;-7.958;2022-08-03T09:10:18;97140.50;;;22.81;62.99
61035;BME280;46916;40.564;-7.958;2022-08-03T09:12:21;97130.59;;;22.88;63.28
61035;BME280;46916;40.564;-7.958;2022-08-03T09:14:22;97140.06;;;22.91;63.65
61035;BME280;46916;40.564;-7.958;2022-08-03T09:16:27;97139.59;;;23.01;63.32
61035;BME280;46916;40.564;-7.958;2022-08-03T09:18:30;97128.41;;;23.10;62.67
61035;BME280;46916;40.564;-7.958;2022-08-03T09:20:34;97131.66;;;23.19;62.35
61035;BME280;46916;40.564;-7.958;2022-08-03T09:23:07;97134.97;;;23.14;62.25
61035;BME280;46916;40.564;-7.958;2022-08-03T09:25:10;97131.06;;;23.17;62.11
61035;BME280;46916;40.564;-7.958;2022-08-03T09:27:12;97130.66;;;23.13;61.90
61035;BME280;46916;40.564;-7.958;2022-08-03T09:29:14;97130.50;;;23.08;62.64
61035;BME280;46916;40.564;-7.958;2022-08-03T09:31:19;97132.69;;;23.18;62.38
61035;BME280;46916;40.564;-7.958;2022-08-03T09:33:28;97127.13;;;23.19;62.95
61035;BME280;46916;40.564;-7.958;2022-08-03T09:36:07;97133.41;;;23.32;62.32
61035;BME280;46916;40.564;-7.958;2022-08-03T09:38:22;97129.28;;;23.36;61.66
61035;BME280;46916;40.564;-7.958;2022-08-03T09:40:35;97132.22;;;23.28;61.91
61035;BME280;46916;40.564;-7.958;2022-08-03T09:42:55;97135.16;;;23.19;62.52
61035;BME280;46916;40.564;-7.958;2022-08-03T09:44:55;97129.56;;;23.21;62.82
61035;BME280;46916;40.564;-7.958;2022-08-03T09:46:57;97133.41;;;23.32;62.09
61035;BME280;46916;40.564;-7.958;2022-08-03T09:49:11;97132.91;;;23.41;62.21
61035;BME280;46916;40.564;-7.958;2022-08-03T09:51:23;97130.94;;;23.55;61.66
61035;BME280;46916;40.564;-7.958;2022-08-03T09:53:24;97123.53;;;23.57;62.08
61035;BME280;46916;40.564;-7.958;2022-08-03T09:55:28;97127.16;;;23.63;61.25
61035;BME280;46916;40.564;-7.958;2022-08-03T09:57:30;97132.63;;;23.49;61.81
61035;BME280;46916;40.564;-7.958;2022-08-03T09:59:32;97125.28;;;23.45;62.38
61035;BME280;46916;40.564;-7.958;2022-08-03T10:01:37;97121.44;;;23.59;62.05
61035;BME280;46916;40.564;-7.958;2022-08-03T10:03:41;97121.41;;;23.66;61.84
61035;BME280;46916;40.564;-7.958;2022-08-03T10:05:46;97126.63;;;23.79;61.14
61035;BME280;46916;40.564;-7.958;2022-08-03T10:07:49;97124.66;;;23.93;60.86
61035;BME280;46916;40.564;-7.958;2022-08-03T10:09:57;97127.47;;;23.98;60.57
61035;BME280;46916;40.564;-7.958;2022-08-03T10:12:10;97122.06;;;24.05;60.26
61035;BME280;46916;40.564;-7.958;2022-08-03T10:14:13;97129.78;;;23.94;60.66
61035;BME280;46916;40.564;-7.958;2022-08-03T10:16:24;97120.50;;;23.97;60.57
61035;BME280;46916;40.564;-7.958;2022-08-03T10:18:24;97124.19;;;23.96;60.80
61035;BME280;46916;40.564;-7.958;2022-08-03T10:20:25;97122.06;;;24.05;60.25
61035;BME280;46916;40.564;-7.958;2022-08-03T10:22:32;97123.69;;;24.06;60.30
61035;BME280;46916;40.564;-7.958;2022-08-03T10:24:34;97114.19;;;24.10;60.53
61035;BME280;46916;40.564;-7.958;2022-08-03T10:26:38;97117.44;;;24.30;59.94
61035;BME280;46916;40.564;-7.958;2022-08-03T10:28:41;97123.25;;;24.45;59.56
61035;BME280;46916;40.564;-7.958;2022-08-03T10:30:48;97117.00;;;24.52;59.10
61035;BME280;46916;40.564;-7.958;2022-08-03T10:32:55;97121.53;;;24.51;59.20
61035;BME280;46916;40.564;-7.958;2022-08-03T10:35:06;97116.00;;;24.64;59.14
61035;BME280;46916;40.564;-7.958;2022-08-03T10:37:09;97111.28;;;24.78;58.80
61035;BME280;46916;40.564;-7.958;2022-08-03T10:39:12;97109.22;;;24.92;58.66
61035;BME280;46916;40.564;-7.958;2022-08-03T10:41:14;97110.31;;;25.03;58.24
61035;BME280;46916;40.564;-7.958;2022-08-03T10:43:19;97115.38;;;25.11;57.75
61035;BME280;46916;40.564;-7.958;2022-08-03T10:45:26;97112.34;;;25.19;57.65
61035;BME280;46916;40.564;-7.958;2022-08-03T10:47:29;97106.66;;;25.27;57.20
61035;BME280;46916;40.564;-7.958;2022-08-03T10:49:32;97111.53;;;25.30;56.91
61035;BME280;46916;40.564;-7.958;2022-08-03T10:51:33;97101.88;;;25.29;57.20
61035;BME280;46916;40.564;-7.958;2022-08-03T10:53:39;97107.22;;;25.29;57.08
61035;BME280;46916;40.564;-7.958;2022-08-03T10:55:43;97106.06;;;25.37;57.02
61035;BME280;46916;40.564;-7.958;2022-08-03T10:58:03;97098.63;;;25.51;56.99